Cathlamet, Washington
Current Conditions -  °F | °C
As of 11:55 PM on Tuesday 21 Oct 2014 (Local Time) from KKLS Reporting Station
Overcast Overcast  
Wind Chill: 59°   Ceiling: 9000
Heat Index: 59°   Visibility: 10mi
Dew Point: 46°   Wind: 21mph
Humidity: 63%   Direction: 150°SSE
Pressure: 29.82"   Gusts: 36mph
Location:  46.2°N, 123.38°W
Report Text: KKLS 220655Z AUTO 15018G31KT 10SM SCT065 SCT070 OVC090 15/08 A2982 RMK AO1
Loading
Personal Weather Stations






























Interactive Weather Map New forecast layout! Learn more

10-Day Weather Forecast

Advertisements
Track Severe Weather on mobile